K21S

2018-05-23 20:00:09Z

Plaintext report →

Current Status: Clear

Temperature
High32.3 °C90.1 °F
Current25.1 °C77.2 °F
Low22.1 °C71.8 °F
Feels Like25.6 °C78.0 °F
Dewpoint20.2 °C68.4 °F
Winds
Speed and Direction1.3 m/s2.9 mi/h 2 kn35 °
Gust0.0 m/s0.00 mi/h 0 kn
SquallUnavailable
Pressure and Humidity
Pressure At Field Level1015.0 mb30.0 in
Pressure At Sea Level1015.4 mb30.0 in
Pressure Trend-1.2 mb-0.0 in
Pressure Tendency 8
Humidity73 %

Station Alarms & Warnings:

Ceilometer Alarms / Warnings:

Ceilometer Data Missing!
Historical Weather Phenomenon Graphs

Additional Information:

  METAR K21S 232000Z AUTO 04002KT NCD 25/20 A2997 RMK AO2 SLP154 10323
  20221 58012 $=    
Cloud Cover
Layer 1 Undetected
Layer 2 Undetected
Layer 3 Undetected
Winds
2-minute Winds
Minimum0.0 m/s0.00 mi/h 0 kn34 °
Average0.8 m/s1.79 mi/h 1 kn77 °
Maximum2.3 m/s5.14 mi/h 4 kn127 °
10-minute Winds
Minimum0.0 m/s0.00 mi/h 0 kn356 °
Average1.0 m/s2.24 mi/h 1 kn52 °
Maximum2.3 m/s5.14 mi/h 4 kn127 °
Precipitation
Intensity0.00 mm/h0.00 in/h
Rainfall
1-hour Total0.00 mm0.00 in
3-hour Total0.00 mm0.00 in
6-hour Total0.00 mm0.00 in
24-hour Total9.20 mm0.36 in
Precipitation
1-hour Total0.00 mm0.00 in
3-hour Total0.00 mm0.00 in
6-hour Total0.00 mm0.00 in
24-hour Total4.80 mm0.19 in